sensor_id;sensor_type;location;lat;lon;timestamp;P1;durP1;ratioP1;P2;durP2;ratioP2
34920;SDS011;21128;50.016;20.002;2023-01-26T00:02:18;34.27;;;21.47;;
34920;SDS011;21128;50.016;20.002;2023-01-26T00:05:05;35.37;;;21.20;;
34920;SDS011;21128;50.016;20.002;2023-01-26T00:08:04;33.60;;;20.95;;
34920;SDS011;21128;50.016;20.002;2023-01-26T00:10:50;35.53;;;22.30;;
34920;SDS011;21128;50.016;20.002;2023-01-26T00:13:36;35.67;;;21.37;;
34920;SDS011;21128;50.016;20.002;2023-01-26T00:16:23;34.37;;;21.63;;
34920;SDS011;21128;50.016;20.002;2023-01-26T00:19:09;34.23;;;21.93;;
34920;SDS011;21128;50.016;20.002;2023-01-26T00:21:55;34.63;;;21.80;;
34920;SDS011;21128;50.016;20.002;2023-01-26T00:24:41;35.63;;;22.97;;
34920;SDS011;21128;50.016;20.002;2023-01-26T00:27:26;38.07;;;22.50;;
34920;SDS011;21128;50.016;20.002;2023-01-26T00:30:13;35.30;;;21.83;;
34920;SDS011;21128;50.016;20.002;2023-01-26T00:32:59;37.60;;;22.50;;
34920;SDS011;21128;50.016;20.002;2023-01-26T00:35:52;38.57;;;22.23;;
34920;SDS011;21128;50.016;20.002;2023-01-26T00:38:39;37.30;;;22.97;;
34920;SDS011;21128;50.016;20.002;2023-01-26T00:41:25;38.90;;;24.40;;
34920;SDS011;21128;50.016;20.002;2023-01-26T00:44:30;36.93;;;22.93;;
34920;SDS011;21128;50.016;20.002;2023-01-26T00:47:17;39.20;;;22.90;;
34920;SDS011;21128;50.016;20.002;2023-01-26T00:50:03;39.50;;;23.03;;
34920;SDS011;21128;50.016;20.002;2023-01-26T00:52:50;33.57;;;21.30;;
34920;SDS011;21128;50.016;20.002;2023-01-26T00:55:38;34.07;;;21.37;;
34920;SDS011;21128;50.016;20.002;2023-01-26T00:58:23;36.83;;;21.50;;
34920;SDS011;21128;50.016;20.002;2023-01-26T01:01:10;34.03;;;21.73;;
34920;SDS011;21128;50.016;20.002;2023-01-26T01:03:56;35.30;;;21.83;;
34920;SDS011;21128;50.016;20.002;2023-01-26T01:06:43;30.87;;;20.70;;
34920;SDS011;21128;50.016;20.002;2023-01-26T01:09:48;35.90;;;21.97;;
34920;SDS011;21128;50.016;20.002;2023-01-26T01:12:34;28.55;;;17.70;;
34920;SDS011;21128;50.016;20.002;2023-01-26T01:15:21;39.03;;;23.07;;
34920;SDS011;21128;50.016;20.002;2023-01-26T01:18:06;35.00;;;21.90;;
34920;SDS011;21128;50.016;20.002;2023-01-26T01:20:52;36.53;;;23.10;;
34920;SDS011;21128;50.016;20.002;2023-01-26T01:23:39;36.67;;;23.87;;
34920;SDS011;21128;50.016;20.002;2023-01-26T01:26:25;34.57;;;23.10;;
34920;SDS011;21128;50.016;20.002;2023-01-26T01:29:12;38.95;;;23.60;;
34920;SDS011;21128;50.016;20.002;2023-01-26T01:31:59;36.67;;;23.27;;
34920;SDS011;21128;50.016;20.002;2023-01-26T01:34:45;36.60;;;23.23;;
34920;SDS011;21128;50.016;20.002;2023-01-26T01:37:32;38.97;;;23.80;;
34920;SDS011;21128;50.016;20.002;2023-01-26T01:40:18;38.63;;;24.57;;
34920;SDS011;21128;50.016;20.002;2023-01-26T01:43:08;37.13;;;21.57;;
34920;SDS011;21128;50.016;20.002;2023-01-26T01:45:56;38.10;;;23.23;;
34920;SDS011;21128;50.016;20.002;2023-01-26T01:51:34;36.27;;;22.60;;
34920;SDS011;21128;50.016;20.002;2023-01-26T01:54:25;36.67;;;22.10;;
34920;SDS011;21128;50.016;20.002;2023-01-26T01:57:20;32.47;;;21.57;;
34920;SDS011;21128;50.016;20.002;2023-01-26T02:00:18;34.10;;;20.60;;
34920;SDS011;21128;50.016;20.002;2023-01-26T02:03:06;35.93;;;20.03;;
34920;SDS011;21128;50.016;20.002;2023-01-26T02:06:12;27.22;;;18.00;;
34920;SDS011;21128;50.016;20.002;2023-01-26T02:09:28;31.47;;;18.10;;
34920;SDS011;21128;50.016;20.002;2023-01-26T02:12:36;30.47;;;18.33;;
34920;SDS011;21128;50.016;20.002;2023-01-26T02:15:22;32.37;;;18.70;;
34920;SDS011;21128;50.016;20.002;2023-01-26T02:18:08;30.50;;;18.27;;
34920;SDS011;21128;50.016;20.002;2023-01-26T02:20:57;31.45;;;18.35;;
34920;SDS011;21128;50.016;20.002;2023-01-26T02:23:59;28.00;;;16.90;;
34920;SDS011;21128;50.016;20.002;2023-01-26T02:26:52;27.77;;;16.30;;
34920;SDS011;21128;50.016;20.002;2023-01-26T02:29:39;25.27;;;16.33;;
34920;SDS011;21128;50.016;20.002;2023-01-26T02:32:26;27.27;;;16.73;;
34920;SDS011;21128;50.016;20.002;2023-01-26T02:35:12;27.20;;;17.03;;
34920;SDS011;21128;50.016;20.002;2023-01-26T02:37:58;25.85;;;16.90;;
34920;SDS011;21128;50.016;20.002;2023-01-26T02:40:47;24.23;;;15.40;;
34920;SDS011;21128;50.016;20.002;2023-01-26T02:43:38;23.70;;;15.50;;
34920;SDS011;21128;50.016;20.002;2023-01-26T02:46:25;31.37;;;17.63;;
34920;SDS011;21128;50.016;20.002;2023-01-26T02:49:11;25.30;;;16.10;;
34920;SDS011;21128;50.016;20.002;2023-01-26T02:52:17;26.57;;;16.37;;
34920;SDS011;21128;50.016;20.002;2023-01-26T02:55:07;27.20;;;16.67;;
34920;SDS011;21128;50.016;20.002;2023-01-26T02:58:13;26.77;;;16.63;;
34920;SDS011;21128;50.016;20.002;2023-01-26T03:00:59;29.27;;;17.70;;
34920;SDS011;21128;50.016;20.002;2023-01-26T03:03:45;27.90;;;16.03;;
34920;SDS011;21128;50.016;20.002;2023-01-26T03:06:37;30.13;;;16.03;;
34920;SDS011;21128;50.016;20.002;2023-01-26T03:09:23;22.70;;;15.30;;
34920;SDS011;21128;50.016;20.002;2023-01-26T03:12:09;24.50;;;15.90;;
34920;SDS011;21128;50.016;20.002;2023-01-26T03:14:54;26.63;;;16.50;;
34920;SDS011;21128;50.016;20.002;2023-01-26T03:17:59;24.97;;;16.20;;
34920;SDS011;21128;50.016;20.002;2023-01-26T03:21:10;24.47;;;15.60;;
34920;SDS011;21128;50.016;20.002;2023-01-26T03:24:17;27.67;;;17.43;;
34920;SDS011;21128;50.016;20.002;2023-01-26T03:27:21;26.47;;;16.13;;
34920;SDS011;21128;50.016;20.002;2023-01-26T03:30:17;26.70;;;15.97;;
34920;SDS011;21128;50.016;20.002;2023-01-26T03:33:04;25.63;;;16.00;;
34920;SDS011;21128;50.016;20.002;2023-01-26T03:35:51;24.97;;;15.47;;
34920;SDS011;21128;50.016;20.002;2023-01-26T03:38:39;22.07;;;14.37;;
34920;SDS011;21128;50.016;20.002;2023-01-26T03:41:25;24.27;;;15.60;;
34920;SDS011;21128;50.016;20.002;2023-01-26T03:44:29;27.70;;;16.57;;
34920;SDS011;21128;50.016;20.002;2023-01-26T03:47:34;26.23;;;15.80;;
34920;SDS011;21128;50.016;20.002;2023-01-26T03:50:39;26.90;;;16.15;;
34920;SDS011;21128;50.016;20.002;2023-01-26T03:53:44;27.33;;;15.43;;
34920;SDS011;21128;50.016;20.002;2023-01-26T03:56:48;26.10;;;15.67;;
34920;SDS011;21128;50.016;20.002;2023-01-26T03:59:35;26.83;;;16.10;;
34920;SDS011;21128;50.016;20.002;2023-01-26T04:02:23;25.53;;;16.07;;
34920;SDS011;21128;50.016;20.002;2023-01-26T04:05:28;27.90;;;16.13;;
34920;SDS011;21128;50.016;20.002;2023-01-26T04:08:33;29.50;;;17.53;;
34920;SDS011;21128;50.016;20.002;2023-01-26T04:11:26;26.70;;;14.57;;
34920;SDS011;21128;50.016;20.002;2023-01-26T04:14:12;24.93;;;16.00;;
34920;SDS011;21128;50.016;20.002;2023-01-26T04:17:18;27.13;;;16.40;;
34920;SDS011;21128;50.016;20.002;2023-01-26T04:20:22;25.33;;;15.83;;
34920;SDS011;21128;50.016;20.002;2023-01-26T04:23:27;27.53;;;17.07;;
34920;SDS011;21128;50.016;20.002;2023-01-26T04:26:12;31.47;;;18.20;;
34920;SDS011;21128;50.016;20.002;2023-01-26T04:28:59;30.77;;;18.03;;
34920;SDS011;21128;50.016;20.002;2023-01-26T04:31:46;28.97;;;18.00;;
34920;SDS011;21128;50.016;20.002;2023-01-26T04:34:32;31.17;;;18.17;;
34920;SDS011;21128;50.016;20.002;2023-01-26T04:37:18;32.40;;;18.77;;
34920;SDS011;21128;50.016;20.002;2023-01-26T04:40:05;30.00;;;18.57;;
34920;SDS011;21128;50.016;20.002;2023-01-26T04:42:52;31.55;;;19.10;;
34920;SDS011;21128;50.016;20.002;2023-01-26T04:45:38;30.73;;;18.00;;
34920;SDS011;21128;50.016;20.002;2023-01-26T04:48:24;32.50;;;19.47;;
34920;SDS011;21128;50.016;20.002;2023-01-26T04:51:12;29.20;;;17.80;;
34920;SDS011;21128;50.016;20.002;2023-01-26T04:54:01;31.13;;;18.23;;
34920;SDS011;21128;50.016;20.002;2023-01-26T04:56:47;29.10;;;18.33;;
34920;SDS011;21128;50.016;20.002;2023-01-26T04:59:33;34.03;;;18.10;;
34920;SDS011;21128;50.016;20.002;2023-01-26T05:02:19;29.07;;;18.17;;
34920;SDS011;21128;50.016;20.002;2023-01-26T05:05:05;28.53;;;18.20;;
34920;SDS011;21128;50.016;20.002;2023-01-26T05:07:51;30.40;;;18.35;;
34920;SDS011;21128;50.016;20.002;2023-01-26T05:10:44;29.45;;;18.50;;
34920;SDS011;21128;50.016;20.002;2023-01-26T05:13:30;32.17;;;18.70;;
34920;SDS011;21128;50.016;20.002;2023-01-26T05:16:16;27.57;;;17.83;;
34920;SDS011;21128;50.016;20.002;2023-01-26T05:19:02;31.73;;;19.10;;
34920;SDS011;21128;50.016;20.002;2023-01-26T05:21:48;34.27;;;18.20;;
34920;SDS011;21128;50.016;20.002;2023-01-26T05:24:34;28.30;;;18.20;;
34920;SDS011;21128;50.016;20.002;2023-01-26T05:27:20;28.47;;;18.40;;
34920;SDS011;21128;50.016;20.002;2023-01-26T05:30:06;31.03;;;19.20;;
34920;SDS011;21128;50.016;20.002;2023-01-26T05:32:52;31.03;;;18.40;;
34920;SDS011;21128;50.016;20.002;2023-01-26T05:35:38;33.87;;;19.20;;
34920;SDS011;21128;50.016;20.002;2023-01-26T05:38:24;36.30;;;20.60;;
34920;SDS011;21128;50.016;20.002;2023-01-26T05:41:10;27.63;;;18.80;;
34920;SDS011;21128;50.016;20.002;2023-01-26T05:43:56;31.90;;;20.40;;
34920;SDS011;21128;50.016;20.002;2023-01-26T05:46:42;34.70;;;19.97;;
34920;SDS011;21128;50.016;20.002;2023-01-26T05:49:28;34.93;;;20.57;;
34920;SDS011;21128;50.016;20.002;2023-01-26T05:52:15;34.80;;;23.13;;
34920;SDS011;21128;50.016;20.002;2023-01-26T05:55:03;36.80;;;21.33;;
34920;SDS011;21128;50.016;20.002;2023-01-26T05:57:50;32.17;;;19.70;;
34920;SDS011;21128;50.016;20.002;2023-01-26T06:00:37;33.47;;;18.90;;
34920;SDS011;21128;50.016;20.002;2023-01-26T06:03:23;33.33;;;20.07;;
34920;SDS011;21128;50.016;20.002;2023-01-26T06:06:15;31.00;;;18.63;;
34920;SDS011;21128;50.016;20.002;2023-01-26T06:09:01;29.77;;;18.97;;
34920;SDS011;21128;50.016;20.002;2023-01-26T06:11:46;43.27;;;21.60;;
34920;SDS011;21128;50.016;20.002;2023-01-26T06:14:32;35.90;;;20.55;;
34920;SDS011;21128;50.016;20.002;2023-01-26T06:17:18;34.43;;;21.13;;
34920;SDS011;21128;50.016;20.002;2023-01-26T06:20:05;32.70;;;20.17;;
34920;SDS011;21128;50.016;20.002;2023-01-26T06:22:51;33.27;;;20.43;;
34920;SDS011;21128;50.016;20.002;2023-01-26T06:25:37;34.20;;;21.77;;
34920;SDS011;21128;50.016;20.002;2023-01-26T06:28:23;35.70;;;20.85;;
34920;SDS011;21128;50.016;20.002;2023-01-26T06:31:09;32.45;;;19.80;;
34920;SDS011;21128;50.016;20.002;2023-01-26T06:33:55;33.25;;;20.25;;
34920;SDS011;21128;50.016;20.002;2023-01-26T06:36:42;33.57;;;21.13;;
34920;SDS011;21128;50.016;20.002;2023-01-26T06:39:27;34.87;;;20.40;;
34920;SDS011;21128;50.016;20.002;2023-01-26T06:42:13;30.77;;;19.97;;
34920;SDS011;21128;50.016;20.002;2023-01-26T06:44:59;35.93;;;21.00;;
34920;SDS011;21128;50.016;20.002;2023-01-26T06:47:49;36.50;;;22.00;;
34920;SDS011;21128;50.016;20.002;2023-01-26T06:50:36;32.90;;;19.93;;
34920;SDS011;21128;50.016;20.002;2023-01-26T06:53:27;31.97;;;19.97;;
34920;SDS011;21128;50.016;20.002;2023-01-26T06:56:14;35.87;;;20.57;;
34920;SDS011;21128;50.016;20.002;2023-01-26T06:58:59;37.53;;;20.83;;
34920;SDS011;21128;50.016;20.002;2023-01-26T07:01:45;38.23;;;22.47;;
34920;SDS011;21128;50.016;20.002;2023-01-26T07:04:32;38.40;;;22.40;;
34920;SDS011;21128;50.016;20.002;2023-01-26T07:07:19;38.37;;;22.63;;
34920;SDS011;21128;50.016;20.002;2023-01-26T07:10:12;35.30;;;20.77;;
34920;SDS011;21128;50.016;20.002;2023-01-26T07:12:58;38.83;;;23.10;;
34920;SDS011;21128;50.016;20.002;2023-01-26T07:15:44;37.97;;;21.80;;
34920;SDS011;21128;50.016;20.002;2023-01-26T07:18:29;37.60;;;22.00;;
34920;SDS011;21128;50.016;20.002;2023-01-26T07:21:17;36.95;;;21.10;;
34920;SDS011;21128;50.016;20.002;2023-01-26T07:24:03;39.77;;;23.00;;
34920;SDS011;21128;50.016;20.002;2023-01-26T07:26:50;39.87;;;22.90;;
34920;SDS011;21128;50.016;20.002;2023-01-26T07:29:36;38.83;;;22.00;;
34920;SDS011;21128;50.016;20.002;2023-01-26T07:32:22;38.37;;;22.27;;
34920;SDS011;21128;50.016;20.002;2023-01-26T07:35:08;40.37;;;22.60;;
34920;SDS011;21128;50.016;20.002;2023-01-26T07:37:54;33.35;;;20.90;;
34920;SDS011;21128;50.016;20.002;2023-01-26T07:40:42;36.07;;;21.77;;
34920;SDS011;21128;50.016;20.002;2023-01-26T07:43:28;34.53;;;21.30;;
34920;SDS011;21128;50.016;20.002;2023-01-26T07:46:17;35.23;;;22.60;;
34920;SDS011;21128;50.016;20.002;2023-01-26T07:49:04;37.30;;;20.03;;
34920;SDS011;21128;50.016;20.002;2023-01-26T07:51:50;34.63;;;21.77;;
34920;SDS011;21128;50.016;20.002;2023-01-26T07:54:38;34.33;;;21.27;;
34920;SDS011;21128;50.016;20.002;2023-01-26T07:57:24;34.00;;;22.30;;
34920;SDS011;21128;50.016;20.002;2023-01-26T08:00:10;34.20;;;21.93;;
34920;SDS011;21128;50.016;20.002;2023-01-26T08:02:56;39.90;;;22.57;;
34920;SDS011;21128;50.016;20.002;2023-01-26T08:05:42;35.70;;;21.00;;
34920;SDS011;21128;50.016;20.002;2023-01-26T08:08:29;39.17;;;22.13;;
34920;SDS011;21128;50.016;20.002;2023-01-26T08:11:21;37.87;;;22.63;;
34920;SDS011;21128;50.016;20.002;2023-01-26T08:14:08;38.75;;;22.55;;
34920;SDS011;21128;50.016;20.002;2023-01-26T08:16:54;37.13;;;22.63;;
34920;SDS011;21128;50.016;20.002;2023-01-26T08:19:40;37.33;;;23.03;;
34920;SDS011;21128;50.016;20.002;2023-01-26T08:22:26;42.10;;;23.43;;
34920;SDS011;21128;50.016;20.002;2023-01-26T08:25:12;39.40;;;23.03;;
34920;SDS011;21128;50.016;20.002;2023-01-26T08:27:58;38.03;;;22.57;;
34920;SDS011;21128;50.016;20.002;2023-01-26T08:30:44;40.87;;;24.53;;
34920;SDS011;21128;50.016;20.002;2023-01-26T08:33:30;40.07;;;24.30;;
34920;SDS011;21128;50.016;20.002;2023-01-26T08:36:17;35.07;;;22.97;;
34920;SDS011;21128;50.016;20.002;2023-01-26T08:39:04;40.97;;;23.53;;
34920;SDS011;21128;50.016;20.002;2023-01-26T08:41:50;35.95;;;23.80;;
34920;SDS011;21128;50.016;20.002;2023-01-26T08:44:36;35.93;;;22.23;;
34920;SDS011;21128;50.016;20.002;2023-01-26T08:47:22;41.40;;;24.03;;
34920;SDS011;21128;50.016;20.002;2023-01-26T08:50:08;36.17;;;21.70;;
34920;SDS011;21128;50.016;20.002;2023-01-26T08:52:54;34.47;;;22.33;;
34920;SDS011;21128;50.016;20.002;2023-01-26T08:55:41;37.50;;;22.30;;
34920;SDS011;21128;50.016;20.002;2023-01-26T08:58:27;37.07;;;23.37;;
34920;SDS011;21128;50.016;20.002;2023-01-26T09:01:14;34.70;;;23.33;;
34920;SDS011;21128;50.016;20.002;2023-01-26T09:04:01;36.30;;;22.20;;
34920;SDS011;21128;50.016;20.002;2023-01-26T09:06:54;39.73;;;22.00;;
34920;SDS011;21128;50.016;20.002;2023-01-26T09:09:52;36.73;;;23.03;;
34920;SDS011;21128;50.016;20.002;2023-01-26T09:12:38;41.53;;;24.43;;
34920;SDS011;21128;50.016;20.002;2023-01-26T09:15:25;45.47;;;25.43;;
34920;SDS011;21128;50.016;20.002;2023-01-26T09:18:12;41.10;;;24.27;;
34920;SDS011;21128;50.016;20.002;2023-01-26T09:21:04;44.73;;;24.90;;
34920;SDS011;21128;50.016;20.002;2023-01-26T09:23:52;36.73;;;22.63;;
34920;SDS011;21128;50.016;20.002;2023-01-26T09:26:41;40.43;;;22.03;;
34920;SDS011;21128;50.016;20.002;2023-01-26T09:29:26;38.73;;;22.53;;
34920;SDS011;21128;50.016;20.002;2023-01-26T09:32:12;36.93;;;22.10;;
34920;SDS011;21128;50.016;20.002;2023-01-26T09:34:59;35.77;;;21.93;;
34920;SDS011;21128;50.016;20.002;2023-01-26T09:37:44;34.67;;;21.30;;
34920;SDS011;21128;50.016;20.002;2023-01-26T09:43:49;36.17;;;21.40;;
34920;SDS011;21128;50.016;20.002;2023-01-26T09:46:46;35.97;;;22.40;;
34920;SDS011;21128;50.016;20.002;2023-01-26T09:49:58;41.60;;;22.27;;
34920;SDS011;21128;50.016;20.002;2023-01-26T09:52:56;34.23;;;21.03;;
34920;SDS011;21128;50.016;20.002;2023-01-26T09:55:44;44.37;;;23.47;;
34920;SDS011;21128;50.016;20.002;2023-01-26T09:58:36;44.83;;;22.50;;
34920;SDS011;21128;50.016;20.002;2023-01-26T10:01:34;35.45;;;21.52;;
34920;SDS011;21128;50.016;20.002;2023-01-26T10:04:28;34.67;;;20.80;;
34920;SDS011;21128;50.016;20.002;2023-01-26T10:07:30;46.60;;;28.37;;
34920;SDS011;21128;50.016;20.002;2023-01-26T10:10:31;34.90;;;21.77;;
34920;SDS011;21128;50.016;20.002;2023-01-26T10:13:21;31.13;;;19.33;;
34920;SDS011;21128;50.016;20.002;2023-01-26T10:16:08;34.17;;;21.87;;
34920;SDS011;21128;50.016;20.002;2023-01-26T10:18:59;36.00;;;21.43;;
34920;SDS011;21128;50.016;20.002;2023-01-26T10:21:50;35.40;;;20.93;;
34920;SDS011;21128;50.016;20.002;2023-01-26T10:24:38;35.70;;;21.67;;
34920;SDS011;21128;50.016;20.002;2023-01-26T10:27:26;33.20;;;21.63;;
34920;SDS011;21128;50.016;20.002;2023-01-26T10:30:16;33.67;;;21.33;;
34920;SDS011;21128;50.016;20.002;2023-01-26T10:33:04;34.20;;;21.70;;
34920;SDS011;21128;50.016;20.002;2023-01-26T10:39:09;33.60;;;19.50;;
34920;SDS011;21128;50.016;20.002;2023-01-26T10:41:58;34.80;;;21.23;;
34920;SDS011;21128;50.016;20.002;2023-01-26T10:44:46;32.63;;;20.77;;
34920;SDS011;21128;50.016;20.002;2023-01-26T10:47:35;31.57;;;19.93;;
34920;SDS011;21128;50.016;20.002;2023-01-26T10:50:22;33.73;;;20.97;;
34920;SDS011;21128;50.016;20.002;2023-01-26T10:53:13;34.05;;;21.70;;
34920;SDS011;21128;50.016;20.002;2023-01-26T10:56:04;39.33;;;22.97;;
34920;SDS011;21128;50.016;20.002;2023-01-26T10:58:56;37.57;;;22.83;;
34920;SDS011;21128;50.016;20.002;2023-01-26T11:01:51;35.07;;;20.57;;
34920;SDS011;21128;50.016;20.002;2023-01-26T11:04:39;35.57;;;20.33;;
34920;SDS011;21128;50.016;20.002;2023-01-26T11:07:33;33.20;;;21.13;;
34920;SDS011;21128;50.016;20.002;2023-01-26T11:10:35;35.40;;;21.60;;
34920;SDS011;21128;50.016;20.002;2023-01-26T11:13:23;38.17;;;21.27;;
34920;SDS011;21128;50.016;20.002;2023-01-26T11:16:11;34.37;;;21.40;;
34920;SDS011;21128;50.016;20.002;2023-01-26T11:19:02;35.80;;;21.77;;
34920;SDS011;21128;50.016;20.002;2023-01-26T11:21:58;36.65;;;23.70;;
34920;SDS011;21128;50.016;20.002;2023-01-26T11:24:54;37.23;;;21.93;;
34920;SDS011;21128;50.016;20.002;2023-01-26T11:30:47;35.57;;;21.23;;
34920;SDS011;21128;50.016;20.002;2023-01-26T11:33:52;37.30;;;21.37;;
34920;SDS011;21128;50.016;20.002;2023-01-26T11:42:57;34.50;;;21.80;;
34920;SDS011;21128;50.016;20.002;2023-01-26T11:52:13;31.83;;;20.27;;
34920;SDS011;21128;50.016;20.002;2023-01-26T11:55:24;31.27;;;20.30;;
34920;SDS011;21128;50.016;20.002;2023-01-26T12:01:37;35.00;;;20.70;;
34920;SDS011;21128;50.016;20.002;2023-01-26T12:04:26;36.17;;;22.50;;
34920;SDS011;21128;50.016;20.002;2023-01-26T12:07:22;33.33;;;21.60;;
34920;SDS011;21128;50.016;20.002;2023-01-26T12:17:23;32.83;;;21.50;;
34920;SDS011;21128;50.016;20.002;2023-01-26T12:26:31;31.53;;;20.43;;
34920;SDS011;21128;50.016;20.002;2023-01-26T12:29:37;33.47;;;20.90;;
34920;SDS011;21128;50.016;20.002;2023-01-26T12:32:32;39.60;;;22.10;;
34920;SDS011;21128;50.016;20.002;2023-01-26T12:35:42;39.23;;;22.13;;
34920;SDS011;21128;50.016;20.002;2023-01-26T12:44:46;29.77;;;20.20;;
34920;SDS011;21128;50.016;20.002;2023-01-26T12:47:50;32.83;;;20.50;;
34920;SDS011;21128;50.016;20.002;2023-01-26T12:50:42;32.93;;;22.57;;
34920;SDS011;21128;50.016;20.002;2023-01-26T12:53:50;36.70;;;22.00;;
34920;SDS011;21128;50.016;20.002;2023-01-26T12:56:43;32.00;;;21.47;;
34920;SDS011;21128;50.016;20.002;2023-01-26T12:59:37;33.13;;;21.60;;
34920;SDS011;21128;50.016;20.002;2023-01-26T13:02:26;34.57;;;21.50;;
34920;SDS011;21128;50.016;20.002;2023-01-26T13:05:28;33.75;;;20.90;;
34920;SDS011;21128;50.016;20.002;2023-01-26T13:15:21;37.25;;;22.90;;
34920;SDS011;21128;50.016;20.002;2023-01-26T13:23:38;34.50;;;21.90;;
34920;SDS011;21128;50.016;20.002;2023-01-26T13:34:55;37.07;;;21.10;;
34920;SDS011;21128;50.016;20.002;2023-01-26T13:37:45;37.60;;;22.73;;
34920;SDS011;21128;50.016;20.002;2023-01-26T13:40:40;41.27;;;24.27;;
34920;SDS011;21128;50.016;20.002;2023-01-26T13:43:41;40.20;;;23.27;;
34920;SDS011;21128;50.016;20.002;2023-01-26T13:46:33;38.37;;;22.83;;
34920;SDS011;21128;50.016;20.002;2023-01-26T13:49:32;43.07;;;21.63;;
34920;SDS011;21128;50.016;20.002;2023-01-26T13:52:23;37.67;;;21.53;;
34920;SDS011;21128;50.016;20.002;2023-01-26T13:55:12;38.20;;;23.30;;
34920;SDS011;21128;50.016;20.002;2023-01-26T13:58:10;38.53;;;23.17;;
34920;SDS011;21128;50.016;20.002;2023-01-26T14:01:04;37.07;;;22.30;;
34920;SDS011;21128;50.016;20.002;2023-01-26T14:04:05;41.43;;;23.70;;
34920;SDS011;21128;50.016;20.002;2023-01-26T14:07:04;38.97;;;23.03;;
34920;SDS011;21128;50.016;20.002;2023-01-26T14:10:07;35.93;;;21.87;;
34920;SDS011;21128;50.016;20.002;2023-01-26T14:13:03;39.10;;;21.83;;
34920;SDS011;21128;50.016;20.002;2023-01-26T14:15:59;35.30;;;21.50;;
34920;SDS011;21128;50.016;20.002;2023-01-26T14:18:47;36.80;;;22.83;;
34920;SDS011;21128;50.016;20.002;2023-01-26T14:21:48;41.80;;;22.90;;
34920;SDS011;21128;50.016;20.002;2023-01-26T14:24:38;39.60;;;22.13;;
34920;SDS011;21128;50.016;20.002;2023-01-26T14:27:29;41.20;;;23.10;;
34920;SDS011;21128;50.016;20.002;2023-01-26T14:30:24;36.55;;;22.05;;
34920;SDS011;21128;50.016;20.002;2023-01-26T14:33:14;38.45;;;23.60;;
34920;SDS011;21128;50.016;20.002;2023-01-26T14:36:02;36.43;;;22.30;;
34920;SDS011;21128;50.016;20.002;2023-01-26T14:38:50;43.60;;;23.87;;
34920;SDS011;21128;50.016;20.002;2023-01-26T14:41:37;34.60;;;21.65;;
34920;SDS011;21128;50.016;20.002;2023-01-26T14:44:24;41.40;;;22.90;;
34920;SDS011;21128;50.016;20.002;2023-01-26T14:50:20;32.67;;;20.23;;
34920;SDS011;21128;50.016;20.002;2023-01-26T14:53:22;35.70;;;21.60;;
34920;SDS011;21128;50.016;20.002;2023-01-26T14:56:16;31.73;;;20.37;;
34920;SDS011;21128;50.016;20.002;2023-01-26T14:59:05;36.33;;;22.13;;
34920;SDS011;21128;50.016;20.002;2023-01-26T15:02:13;34.10;;;20.63;;
34920;SDS011;21128;50.016;20.002;2023-01-26T15:05:07;36.43;;;20.07;;
34920;SDS011;21128;50.016;20.002;2023-01-26T15:08:05;37.47;;;21.23;;
34920;SDS011;21128;50.016;20.002;2023-01-26T15:11:03;32.35;;;20.25;;
34920;SDS011;21128;50.016;20.002;2023-01-26T15:14:17;32.53;;;21.00;;
34920;SDS011;21128;50.016;20.002;2023-01-26T15:17:37;34.83;;;20.40;;
34920;SDS011;21128;50.016;20.002;2023-01-26T15:26:29;33.03;;;21.70;;
34920;SDS011;21128;50.016;20.002;2023-01-26T15:29:19;31.83;;;20.93;;
34920;SDS011;21128;50.016;20.002;2023-01-26T15:32:24;35.23;;;21.43;;
34920;SDS011;21128;50.016;20.002;2023-01-26T15:35:18;35.30;;;21.13;;
34920;SDS011;21128;50.016;20.002;2023-01-26T15:38:12;37.30;;;21.67;;
34920;SDS011;21128;50.016;20.002;2023-01-26T15:40:58;33.13;;;20.53;;
34920;SDS011;21128;50.016;20.002;2023-01-26T15:43:44;33.57;;;20.77;;
34920;SDS011;21128;50.016;20.002;2023-01-26T15:46:29;31.87;;;20.40;;
34920;SDS011;21128;50.016;20.002;2023-01-26T15:49:15;33.80;;;21.70;;
34920;SDS011;21128;50.016;20.002;2023-01-26T15:52:08;34.13;;;21.47;;
34920;SDS011;21128;50.016;20.002;2023-01-26T15:54:58;33.53;;;20.83;;
34920;SDS011;21128;50.016;20.002;2023-01-26T15:57:44;39.23;;;22.13;;
34920;SDS011;21128;50.016;20.002;2023-01-26T16:00:29;35.53;;;21.20;;
34920;SDS011;21128;50.016;20.002;2023-01-26T16:03:17;34.17;;;21.63;;
34920;SDS011;21128;50.016;20.002;2023-01-26T16:06:04;36.57;;;22.27;;
34920;SDS011;21128;50.016;20.002;2023-01-26T16:08:51;42.50;;;23.90;;
34920;SDS011;21128;50.016;20.002;2023-01-26T16:11:47;41.50;;;22.65;;
34920;SDS011;21128;50.016;20.002;2023-01-26T16:14:36;49.53;;;25.63;;
34920;SDS011;21128;50.016;20.002;2023-01-26T16:17:21;37.40;;;22.83;;
34920;SDS011;21128;50.016;20.002;2023-01-26T16:20:08;37.20;;;22.93;;
34920;SDS011;21128;50.016;20.002;2023-01-26T16:22:56;38.70;;;24.73;;
34920;SDS011;21128;50.016;20.002;2023-01-26T16:25:42;38.27;;;22.67;;
34920;SDS011;21128;50.016;20.002;2023-01-26T16:28:28;39.53;;;23.10;;
34920;SDS011;21128;50.016;20.002;2023-01-26T16:31:28;39.50;;;22.90;;
34920;SDS011;21128;50.016;20.002;2023-01-26T16:34:15;35.87;;;22.23;;
34920;SDS011;21128;50.016;20.002;2023-01-26T16:37:01;38.80;;;22.80;;
34920;SDS011;21128;50.016;20.002;2023-01-26T16:39:46;38.40;;;22.03;;
34920;SDS011;21128;50.016;20.002;2023-01-26T16:42:32;36.93;;;23.10;;
34920;SDS011;21128;50.016;20.002;2023-01-26T16:45:21;46.07;;;25.07;;
34920;SDS011;21128;50.016;20.002;2023-01-26T16:48:12;48.80;;;25.95;;
34920;SDS011;21128;50.016;20.002;2023-01-26T16:51:00;40.70;;;24.15;;
34920;SDS011;21128;50.016;20.002;2023-01-26T16:53:56;39.53;;;23.63;;
34920;SDS011;21128;50.016;20.002;2023-01-26T16:56:42;39.63;;;25.00;;
34920;SDS011;21128;50.016;20.002;2023-01-26T16:59:29;43.73;;;24.87;;
34920;SDS011;21128;50.016;20.002;2023-01-26T17:02:25;46.23;;;26.27;;
34920;SDS011;21128;50.016;20.002;2023-01-26T17:05:14;41.35;;;26.35;;
34920;SDS011;21128;50.016;20.002;2023-01-26T17:08:02;45.50;;;27.37;;
34920;SDS011;21128;50.016;20.002;2023-01-26T17:10:54;42.47;;;25.73;;
34920;SDS011;21128;50.016;20.002;2023-01-26T17:13:41;42.37;;;26.33;;
34920;SDS011;21128;50.016;20.002;2023-01-26T17:16:27;45.20;;;27.93;;
34920;SDS011;21128;50.016;20.002;2023-01-26T17:19:17;44.07;;;27.33;;
34920;SDS011;21128;50.016;20.002;2023-01-26T17:22:03;46.33;;;27.13;;
34920;SDS011;21128;50.016;20.002;2023-01-26T17:24:49;44.23;;;26.87;;
34920;SDS011;21128;50.016;20.002;2023-01-26T17:27:35;47.10;;;27.93;;
34920;SDS011;21128;50.016;20.002;2023-01-26T17:30:21;45.37;;;28.43;;
34920;SDS011;21128;50.016;20.002;2023-01-26T17:33:07;42.50;;;26.90;;
34920;SDS011;21128;50.016;20.002;2023-01-26T17:35:59;47.83;;;28.87;;
34920;SDS011;21128;50.016;20.002;2023-01-26T17:38:48;46.43;;;27.93;;
34920;SDS011;21128;50.016;20.002;2023-01-26T17:41:34;48.07;;;28.50;;